Alta June — WDE5645 — position and weather

sailwx.info

Track history (hours):
 
Tides and Currents Weather Stations Pressure Air Temp Water Temp Dewpoint Dewpoint Depression Visibility Wind Speed Wind Dir Waves Ship Positions

Alta June

Owner: Foss Maritime Company, Seattle, WA. More information available from US FCC via Universal Licensing System and Coast Guard Vessel Documentation Center.

Last reported at 2018-Jun-22 22:30 UTC. Time now 2018-Jun-22 22:55 UTC.
Position N 33°44' W 118°10'.

Length 23 m; draft 5 m.

Type: Towing. MMSI: 367369720.

Date/timePositionNaut miles runAvg speedWind from/ knotsBaromVisibWave heightAir tempDewpointWater temp
2018-Jun-22 22:30N 33°44' W 118°10'0 0.1
2018-Jun-22 22:00N 33°44' W 118°10'0 0.0
2018-Jun-22 21:30N 33°44' W 118°10'0 0.1
2018-Jun-22 21:00N 33°44' W 118°10'0 0.0
2018-Jun-22 20:30N 33°44' W 118°10'0 0.0
2018-Jun-22 20:00N 33°44' W 118°10'0 0.0
2018-Jun-22 19:30N 33°44' W 118°10'0 0.0
2018-Jun-22 19:00N 33°44' W 118°10'0 0.0
2018-Jun-22 18:30N 33°44' W 118°10'0 0.0
2018-Jun-22 18:00N 33°44' W 118°10'3 6.0
2018-Jun-22 17:31N 33°45' W 118°13'0 0.7
2018-Jun-22 17:00N 33°46' W 118°13'0 0.0
2018-Jun-22 16:28N 33°46' W 118°13'1 2.2
2018-Jun-22 16:01N 33°46' W 118°14'1 2.3
2018-Jun-22 15:31N 33°46' W 118°16'0 0.0
2018-Jun-22 15:01N 33°46' W 118°16'0 0.0
2018-Jun-22 14:30N 33°46' W 118°16'0 0.0
2018-Jun-22 14:00N 33°46' W 118°16'0 0.0
2018-Jun-22 13:31N 33°46' W 118°16'0 0.0
2018-Jun-22 13:00N 33°46' W 118°16'0 0.0
2018-Jun-22 12:30N 33°46' W 118°16'2 4.5
2018-Jun-22 12:00N 33°46' W 118°13'0 0.6
2018-Jun-22 11:31N 33°46' W 118°13'3 4.4
2018-Jun-22 10:53N 33°44' W 118°12'1 1.6
2018-Jun-22 10:30N 33°44' W 118°12'1 1.1
2018-Jun-22 10:00N 33°44' W 118°12'0 0.0
2018-Jun-22 09:30N 33°44' W 118°12'0 0.0
2018-Jun-22 09:01N 33°44' W 118°12'1 1.6
2018-Jun-22 08:29N 33°45' W 118°13'0 0.2
2018-Jun-22 08:01N 33°45' W 118°13'0 0.7
2018-Jun-22 07:30N 33°45' W 118°13'3 5.1
2018-Jun-22 07:00N 33°46' W 118°16'2 3.7
2018-Jun-22 06:30N 33°44' W 118°16'3 5.1
2018-Jun-22 05:59N 33°44' W 118°13'2 3.7
2018-Jun-22 05:31N 33°46' W 118°13'0 0.0
2018-Jun-22 05:00N 33°46' W 118°13'0 0.0
2018-Jun-22 04:30N 33°46' W 118°13'0 0.0
2018-Jun-22 04:00N 33°46' W 118°13'0 0.0
2018-Jun-22 03:31N 33°46' W 118°13'2 4.1
2018-Jun-22 03:00N 33°46' W 118°16'0 0.3
2018-Jun-22 02:31N 33°46' W 118°16'0 0.0
2018-Jun-22 02:00N 33°46' W 118°16'0 0.1
2018-Jun-22 01:30N 33°46' W 118°16'2 4.5
2018-Jun-22 01:00N 33°44' W 118°16'3 5.9
2018-Jun-22 00:30N 33°44' W 118°13'1 1.4
2018-Jun-22 00:00N 33°45' W 118°13'1 1.4
2018-Jun-21 23:30N 33°44' W 118°12'0 0.5
2018-Jun-21 22:59N 33°44' W 118°13'0 0.2
2018-Jun-21 22:31N 33°44' W 118°13'2 3.2
2018-Jun-21 22:01N 33°46' W 118°13'0 0.0
2018-Jun-21 21:30N 33°46' W 118°13'0 0.0
2018-Jun-21 21:00N 33°46' W 118°13'0 0.0
2018-Jun-21 20:30N 33°46' W 118°13'0 0.0
2018-Jun-21 20:00N 33°46' W 118°13'0 0.2
2018-Jun-21 19:30N 33°46' W 118°13'0 0.0
2018-Jun-21 18:58N 33°46' W 118°13'0 0.0
2018-Jun-21 18:30N 33°46' W 118°13'0 0.2
2018-Jun-21 17:59N 33°46' W 118°13'0 0.0
2018-Jun-21 17:30N 33°46' W 118°13'0 0.0
2018-Jun-21 17:00N 33°46' W 118°13'2 3.3
2018-Jun-21 16:30N 33°45' W 118°12'1 1.6
2018-Jun-21 15:59N 33°44' W 118°13'3 6.7
2018-Jun-21 15:31N 33°44' W 118°16'2 4.6
2018-Jun-21 15:00N 33°46' W 118°16'0 0.0
2018-Jun-21 14:30N 33°46' W 118°16'0 0.0
2018-Jun-21 14:01N 33°46' W 118°16'1 2.7
2018-Jun-21 13:31N 33°45' W 118°16'4 7.3
2018-Jun-21 13:00N 33°44' W 118°12'1 2.1
2018-Jun-21 12:30N 33°44' W 118°11'0 0.8
2018-Jun-21 12:00N 33°44' W 118°11'1 2.0
2018-Jun-21 11:30N 33°43' W 118°12'2 4.3
2018-Jun-21 11:00N 33°45' W 118°13'1 1.0
2018-Jun-21 10:30N 33°46' W 118°13'0 0.0
2018-Jun-21 10:00N 33°46' W 118°13'0 0.0
2018-Jun-21 09:27N 33°46' W 118°13'0 0.0
2018-Jun-21 09:00N 33°46' W 118°13'0 0.0
2018-Jun-21 08:29N 33°46' W 118°13'0 0.0
2018-Jun-21 08:00N 33°46' W 118°13'0 0.0
2018-Jun-21 07:29N 33°46' W 118°13'0 0.0
2018-Jun-21 07:00N 33°46' W 118°13'0 0.0
2018-Jun-21 06:25N 33°46' W 118°13'0 0.0
2018-Jun-21 05:58N 33°46' W 118°13'0 0.0
2018-Jun-21 05:28N 33°46' W 118°13'0 0.0
2018-Jun-21 04:58N 33°46' W 118°13'0 0.0
2018-Jun-21 04:30N 33°46' W 118°13'0 0.0
2018-Jun-21 04:00N 33°46' W 118°13'1 1.4
2018-Jun-21 03:30N 33°46' W 118°14'2 3.3
2018-Jun-21 03:00N 33°46' W 118°16'1 2.0
2018-Jun-21 02:30N 33°45' W 118°16'1 2.8
2018-Jun-21 02:00N 33°44' W 118°15'0 0.0
2018-Jun-21 01:30N 33°44' W 118°15'0 0.0
2018-Jun-21 01:00N 33°44' W 118°15'0 0.0
2018-Jun-21 00:30N 33°44' W 118°15'0 0.0
2018-Jun-21 00:00N 33°44' W 118°15'0 0.0
2018-Jun-20 23:30N 33°44' W 118°15'1 2.3
2018-Jun-20 23:00N 33°44' W 118°17'2 4.6
2018-Jun-20 22:30N 33°46' W 118°15'1 1.6
2018-Jun-20 22:00N 33°45' W 118°16'2 4.5
2018-Jun-20 21:28N 33°43' W 118°16'0 0.8
2018-Jun-20 21:00N 33°43' W 118°16'0 0.5
2018-Jun-20 20:30N 33°43' W 118°16'0 0.0
2018-Jun-20 20:00N 33°43' W 118°16'2 3.6
2018-Jun-20 19:30N 33°44' W 118°13'0 0.3
2018-Jun-20 19:00N 33°44' W 118°13'3 5.0
2018-Jun-20 18:29N 33°44' W 118°16'2 4.3
2018-Jun-20 18:00N 33°46' W 118°16'1 2.7
2018-Jun-20 17:30N 33°46' W 118°14'1 1.6
2018-Jun-20 17:00N 33°46' W 118°13'2 4.2
2018-Jun-20 16:30N 33°44' W 118°13'1 2.8
2018-Jun-20 16:00N 33°44' W 118°15'1 2.5
2018-Jun-20 15:30N 33°44' W 118°17'2 4.1
2018-Jun-20 15:00N 33°46' W 118°15'3 5.4
2018-Jun-20 14:30N 33°45' W 118°12'0 0.1
2018-Jun-20 14:01N 33°45' W 118°12'1 2.8
2018-Jun-20 13:30N 33°43' W 118°11'1 2.2
2018-Jun-20 13:00N 33°44' W 118°12'1 1.2
2018-Jun-20 12:30N 33°44' W 118°13'2 3.3
2018-Jun-20 12:00N 33°45' W 118°14'1 2.1
2018-Jun-20 11:26N 33°45' W 118°13'1 3.4
2018-Jun-20 11:00N 33°44' W 118°12'1 1.8
2018-Jun-20 10:30N 33°44' W 118°12'0 0.0
2018-Jun-20 10:00N 33°44' W 118°12'0 0.9
2018-Jun-20 09:30N 33°44' W 118°12'0 0.5
2018-Jun-20 09:00N 33°45' W 118°12'1 1.3
2018-Jun-20 08:30N 33°45' W 118°13'1 1.4
2018-Jun-20 08:00N 33°46' W 118°13'0 0.0
2018-Jun-20 07:30N 33°46' W 118°13'0 0.0
2018-Jun-20 07:00N 33°46' W 118°13'0 0.0
2018-Jun-20 06:30N 33°46' W 118°13'0 0.0
2018-Jun-20 06:00N 33°46' W 118°13'0 0.0
2018-Jun-20 05:30N 33°46' W 118°13'0 0.0
2018-Jun-20 05:00N 33°46' W 118°13'0 0.0
2018-Jun-20 04:30N 33°46' W 118°13'0 0.0
2018-Jun-20 04:00N 33°46' W 118°13'0 0.0
2018-Jun-20 03:30N 33°46' W 118°13'0 0.0
2018-Jun-20 03:00N 33°46' W 118°13'0 0.0
2018-Jun-20 02:30N 33°46' W 118°13'1 1.6
2018-Jun-20 02:00N 33°45' W 118°14'0 0.3
2018-Jun-20 01:30N 33°45' W 118°14'1 1.4
2018-Jun-20 01:00N 33°46' W 118°13'0 0.0
2018-Jun-20 00:30N 33°46' W 118°13'0 0.0
2018-Jun-20 00:00N 33°46' W 118°13'0 0.0
2018-Jun-19 23:22N 33°46' W 118°13'2 4.4
2018-Jun-19 23:00N 33°46' W 118°15'1 2.3
2018-Jun-19 22:30N 33°45' W 118°16'0 0.5
2018-Jun-19 22:00N 33°45' W 118°16'1 2.7
2018-Jun-19 21:29N 33°44' W 118°16'0 0.0
2018-Jun-19 20:59N 33°44' W 118°16'0 0.0
2018-Jun-19 20:28N 33°44' W 118°16'3 5.4
2018-Jun-19 20:00N 33°44' W 118°13'1 1.7
2018-Jun-19 19:30N 33°45' W 118°13'0 0.7
2018-Jun-19 18:58N 33°45' W 118°13'0 0.9
2018-Jun-19 18:30N 33°45' W 118°12'1 2.8
2018-Jun-19 18:00N 33°43' W 118°11'2 4.7
2018-Jun-19 17:31N 33°45' W 118°13'0 0.5
2018-Jun-19 17:00N 33°46' W 118°13'0 0.0
2018-Jun-19 16:30N 33°46' W 118°13'1 2.4
2018-Jun-19 16:00N 33°46' W 118°15'2 3.3
2018-Jun-19 15:30N 33°46' W 118°17'1 1.3
2018-Jun-19 15:00N 33°46' W 118°16'2 4.0
2018-Jun-19 14:30N 33°46' W 118°13'0 0.8
2018-Jun-19 14:00N 33°46' W 118°13'0 0.0
2018-Jun-19 13:30N 33°46' W 118°13'0 0.0
2018-Jun-19 13:00N 33°46' W 118°13'0 0.0
2018-Jun-19 12:29N 33°46' W 118°13'0 0.0
2018-Jun-19 12:00N 33°46' W 118°13'0 0.0
2018-Jun-19 11:17N 33°46' W 118°13'0 0.0
2018-Jun-19 10:59N 33°46' W 118°13'0 0.0
2018-Jun-19 10:28N 33°46' W 118°13'0 0.0
2018-Jun-19 09:54N 33°46' W 118°13'0 0.0
2018-Jun-19 09:30N 33°46' W 118°13'0 0.0
2018-Jun-19 08:59N 33°46' W 118°13'0 0.8
2018-Jun-19 08:30N 33°45' W 118°13'1 2.2
2018-Jun-19 08:00N 33°44' W 118°13'2 4.9
2018-Jun-19 07:30N 33°42' W 118°11'0 1.0
2018-Jun-19 07:00N 33°42' W 118°11'3 6.4
2018-Jun-19 06:30N 33°45' W 118°13'1 1.7
2018-Jun-19 06:00N 33°45' W 118°13'0 0.7
2018-Jun-19 05:30N 33°46' W 118°13'0 0.0
2018-Jun-19 05:00N 33°46' W 118°13'0 0.0
2018-Jun-19 04:30N 33°46' W 118°13'0 0.0
2018-Jun-19 04:00N 33°46' W 118°13'0 0.0
2018-Jun-19 03:30N 33°46' W 118°13'0 0.0
2018-Jun-19 02:59N 33°46' W 118°13'0 0.0
2018-Jun-19 02:30N 33°46' W 118°13'0 0.0
2018-Jun-19 02:00N 33°46' W 118°13'2 4.0
2018-Jun-19 01:31N 33°46' W 118°16'1 2.8
2018-Jun-19 01:00N 33°44' W 118°17'3 5.5
2018-Jun-19 00:30N 33°43' W 118°13'3 5.4
2018-Jun-19 00:00N 33°46' W 118°13'1 2.2
2018-Jun-18 23:30N 33°45' W 118°13'1 1.2
2018-Jun-18 23:00N 33°45' W 118°12'1 2.2
2018-Jun-18 22:28N 33°44' W 118°14'1 2.8
2018-Jun-18 22:00N 33°44' W 118°12'0 0.7
2018-Jun-18 21:30N 33°44' W 118°12'1 2.0
2018-Jun-18 20:58N 33°44' W 118°12'2 4.1
2018-Jun-18 20:28N 33°45' W 118°13'0 0.0
2018-Jun-18 20:00N 33°45' W 118°13'0 0.5
2018-Jun-18 19:30N 33°45' W 118°13'1 2.9
2018-Jun-18 18:58N 33°46' W 118°13'0 0.3
2018-Jun-18 18:30N 33°46' W 118°13'0 0.4
2018-Jun-18 17:59N 33°46' W 118°13'2 4.2
2018-Jun-18 17:30N 33°44' W 118°13'3 5.7
2018-Jun-18 17:00N 33°44' W 118°17'2 3.7
2018-Jun-18 16:31N 33°46' W 118°16'2 4.3
2018-Jun-18 16:00N 33°46' W 118°13'0 1.0
2018-Jun-18 15:30N 33°45' W 118°13'0 0.1
2018-Jun-18 14:58N 33°45' W 118°13'0 0.0
2018-Jun-18 14:30N 33°45' W 118°13'0 0.0
2018-Jun-18 13:59N 33°45' W 118°13'0 0.0
2018-Jun-18 13:30N 33°45' W 118°13'0 0.0
2018-Jun-18 13:00N 33°45' W 118°13'0 0.0
2018-Jun-18 12:21N 33°45' W 118°13'0 0.0
2018-Jun-18 11:56N 33°45' W 118°13'0 0.0
2018-Jun-18 11:21N 33°45' W 118°13'0 0.0
2018-Jun-18 11:00N 33°45' W 118°13'0 0.0
2018-Jun-18 10:24N 33°45' W 118°13'0 0.0
2018-Jun-18 10:00N 33°45' W 118°13'0 0.4
2018-Jun-18 09:30N 33°45' W 118°13'0 0.0
2018-Jun-18 09:00N 33°45' W 118°13'1 3.0
2018-Jun-18 08:30N 33°44' W 118°12'3 5.5
2018-Jun-18 08:00N 33°42' W 118°11'1 1.0
2018-Jun-18 07:30N 33°42' W 118°11'2 2.9
2018-Jun-18 06:59N 33°44' W 118°12'0 0.5
2018-Jun-18 06:30N 33°44' W 118°12'2 4.6
2018-Jun-18 06:00N 33°46' W 118°13'0 0.0
2018-Jun-18 05:30N 33°46' W 118°13'0 0.0
2018-Jun-18 05:00N 33°46' W 118°13'0 0.0
2018-Jun-18 04:30N 33°46' W 118°13'0 0.0
2018-Jun-18 04:00N 33°46' W 118°13'0 0.0
2018-Jun-18 03:29N 33°46' W 118°13'0 0.0
2018-Jun-18 02:59N 33°46' W 118°13'0 0.0
2018-Jun-18 02:30N 33°46' W 118°13'1 1.8
2018-Jun-18 02:00N 33°46' W 118°14'2 3.4
2018-Jun-18 01:30N 33°46' W 118°16'0 0.0
2018-Jun-18 01:00N 33°46' W 118°16'1 2.1
2018-Jun-18 00:30N 33°45' W 118°17'2 4.9
2018-Jun-18 00:00N 33°43' W 118°15'2 3.3
2018-Jun-17 23:30N 33°42' W 118°13'3 5.1
2018-Jun-17 22:59N 33°43' W 118°16'2 4.5
2018-Jun-17 22:30N 33°45' W 118°16'0 0.0
2018-Jun-17 22:00N 33°45' W 118°16'0 0.0
2018-Jun-17 21:30N 33°45' W 118°16'0 0.0
2018-Jun-17 21:00N 33°45' W 118°16'1 1.6
2018-Jun-17 20:30N 33°46' W 118°16'0 0.3
2018-Jun-17 20:00N 33°46' W 118°16'3 5.5
2018-Jun-17 19:28N 33°43' W 118°16'1 0.2
2018-Jun-17 12:14N 33°42' W 118°17'2 9.6
2018-Jun-17 12:00N 33°43' W 118°14'3 6.3
2018-Jun-17 11:30N 33°46' W 118°14'0 0.0
2018-Jun-17 11:00N 33°46' W 118°14'0 0.0
2018-Jun-17 10:30N 33°46' W 118°14'0 0.0
2018-Jun-17 10:00N 33°46' W 118°14'2 3.9
2018-Jun-17 09:30N 33°44' W 118°13'3 4.2
2018-Jun-17 08:50N 33°44' W 118°17'2 5.8
2018-Jun-17 08:30N 33°46' W 118°16'0 0.2
2018-Jun-17 08:00N 33°46' W 118°16'0 0.0
2018-Jun-17 07:30N 33°46' W 118°16'0 0.0
2018-Jun-17 07:00N 33°46' W 118°16'0 0.0
2018-Jun-17 06:30N 33°46' W 118°16'0 0.0
2018-Jun-17 06:00N 33°46' W 118°16'0 0.0
2018-Jun-17 05:30N 33°46' W 118°16'0 0.0
2018-Jun-17 05:00N 33°46' W 118°16'2 4.1
2018-Jun-17 04:30N 33°46' W 118°13'0 0.0
2018-Jun-17 04:00N 33°46' W 118°13'0 0.0
2018-Jun-17 03:29N 33°46' W 118°13'0 0.0
2018-Jun-17 03:00N 33°46' W 118°13'2 3.4
2018-Jun-17 02:30N 33°44' W 118°13'1 1.7
2018-Jun-17 02:00N 33°45' W 118°12'1 1.5
2018-Jun-17 01:30N 33°45' W 118°13'1 2.9
2018-Jun-17 01:00N 33°46' W 118°14'0 0.1
2018-Jun-17 00:30N 33°46' W 118°14'1 1.3
2018-Jun-17 00:00N 33°46' W 118°13'2 4.8
2018-Jun-16 23:30N 33°45' W 118°16'1 1.5
2018-Jun-16 23:00N 33°45' W 118°17'2 3.0
2018-Jun-16 22:30N 33°46' W 118°15'0 0.1
2018-Jun-16 21:58N 33°46' W 118°15'2 3.8
2018-Jun-16 21:29N 33°46' W 118°13'0 0.0
2018-Jun-16 21:00N 33°46' W 118°13'0 0.0
2018-Jun-16 20:27N 33°46' W 118°13'0 0.0
2018-Jun-16 20:00N 33°46' W 118°13'0 0.0
2018-Jun-16 19:30N 33°46' W 118°13'0 0.0
2018-Jun-16 19:00N 33°46' W 118°13'0 0.0
2018-Jun-16 18:30N 33°46' W 118°13'0 0.0
2018-Jun-16 17:56N 33°46' W 118°13'0 0.0
2018-Jun-16 17:30N 33°46' W 118°13'0 0.0
2018-Jun-16 17:00N 33°46' W 118°13'0 0.0
2018-Jun-16 16:30N 33°46' W 118°13'0 0.0
2018-Jun-16 16:00N 33°46' W 118°13'1 2.5
2018-Jun-16 15:30N 33°46' W 118°15'1 1.9
2018-Jun-16 15:00N 33°46' W 118°16'0 0.0
2018-Jun-16 14:30N 33°46' W 118°16'0 0.0
2018-Jun-16 14:00N 33°46' W 118°16'0 0.3
2018-Jun-16 13:30N 33°46' W 118°16'2 4.8
2018-Jun-16 13:00N 33°43' W 118°16'2 4.1
2018-Jun-16 12:31N 33°45' W 118°17'0 0.3
2018-Jun-16 12:00N 33°46' W 118°17'0 0.0
2018-Jun-16 11:30N 33°46' W 118°17'2 4.4
2018-Jun-16 10:59N 33°43' W 118°16'2 3.1
2018-Jun-16 10:30N 33°45' W 118°16'0 0.7
2018-Jun-16 10:00N 33°45' W 118°16'0 0.0
2018-Jun-16 09:30N 33°45' W 118°16'0 0.0
2018-Jun-16 09:00N 33°45' W 118°16'0 0.0
2018-Jun-16 08:30N 33°45' W 118°16'0 0.0
2018-Jun-16 07:58N 33°45' W 118°16'0 0.0
2018-Jun-16 07:29N 33°45' W 118°16'0 0.0
2018-Jun-16 06:59N 33°45' W 118°16'0 0.0
2018-Jun-16 06:30N 33°45' W 118°16'0 0.0
2018-Jun-16 05:59N 33°45' W 118°16'0 0.0
2018-Jun-16 05:28N 33°45' W 118°16'1 3.0
2018-Jun-16 05:00N 33°46' W 118°15'1 2.6
2018-Jun-16 04:30N 33°46' W 118°13'1 1.2
2018-Jun-16 04:00N 33°46' W 118°14'1 2.6
2018-Jun-16 03:30N 33°45' W 118°13'2 4.1
2018-Jun-16 03:00N 33°43' W 118°11'3 5.0
2018-Jun-16 02:30N 33°46' W 118°13'1 1.5
2018-Jun-16 01:59N 33°46' W 118°13'0 0.0
2018-Jun-16 01:30N 33°46' W 118°13'0 0.0
2018-Jun-16 00:59N 33°46' W 118°13'0 0.0
2018-Jun-16 00:30N 33°46' W 118°13'0 0.0
2018-Jun-16 00:00N 33°46' W 118°13'0 0.0
2018-Jun-15 23:30N 33°46' W 118°13'0 0.0
2018-Jun-15 23:00N 33°46' W 118°13'0 0.0
2018-Jun-15 22:29N 33°46' W 118°13'0 0.0
2018-Jun-15 21:59N 33°46' W 118°13'0 0.0
2018-Jun-15 21:30N 33°46' W 118°13'0 0.0
2018-Jun-15 21:00N 33°46' W 118°13'2 4.9
2018-Jun-15 20:30N 33°46' W 118°16'0 0.2
2018-Jun-15 20:00N 33°46' W 118°16'0 0.1
2018-Jun-15 19:28N 33°46' W 118°16'0 0.0
2018-Jun-15 18:59N 33°46' W 118°16'0 0.0
2018-Jun-15 18:30N 33°46' W 118°16'0 1.0
2018-Jun-15 18:00N 33°46' W 118°15'1 2.7
2018-Jun-15 17:30N 33°46' W 118°14'1 1.1
2018-Jun-15 17:00N 33°46' W 118°13'0 0.0
2018-Jun-15 16:30N 33°46' W 118°13'0 0.0
2018-Jun-15 15:57N 33°46' W 118°13'0 0.0
2018-Jun-15 15:30N 33°46' W 118°13'3 4.7
2018-Jun-15 14:58N 33°43' W 118°14'1 2.5
2018-Jun-15 14:31N 33°44' W 118°15'0 0.2
2018-Jun-15 14:00N 33°44' W 118°15'0 0.0
2018-Jun-15 13:30N 33°44' W 118°15'0 0.1
2018-Jun-15 13:00N 33°44' W 118°15'0 0.0
2018-Jun-15 12:30N 33°44' W 118°15'0 0.1
2018-Jun-15 11:56N 33°44' W 118°15'0 0.4
2018-Jun-15 11:30N 33°44' W 118°15'0 0.0
2018-Jun-15 10:59N 33°44' W 118°15'0 0.0
2018-Jun-15 10:30N 33°44' W 118°15'0 0.0
2018-Jun-15 09:54N 33°44' W 118°15'0 0.0
2018-Jun-15 09:30N 33°44' W 118°15'0 0.0
2018-Jun-15 08:55N 33°44' W 118°15'0 0.0
2018-Jun-15 08:26N 33°44' W 118°15'0 0.0
2018-Jun-15 07:57N 33°44' W 118°15'0 0.0
2018-Jun-15 07:26N 33°44' W 118°15'0 0.0
2018-Jun-15 06:59N 33°44' W 118°15'0 0.0
2018-Jun-15 06:28N 33°44' W 118°15'0 0.0
2018-Jun-15 05:57N 33°44' W 118°15'0 0.0
2018-Jun-15 05:30N 33°44' W 118°15'1 1.0
2018-Jun-15 04:59N 33°44' W 118°15'2 4.9
2018-Jun-15 04:30N 33°45' W 118°13'1 1.1
2018-Jun-15 04:00N 33°46' W 118°13'0 0.0
2018-Jun-15 03:30N 33°46' W 118°13'1 2.9
2018-Jun-15 03:00N 33°44' W 118°13'1 2.8
2018-Jun-15 02:30N 33°44' W 118°15'1 1.8
2018-Jun-15 02:00N 33°43' W 118°16'2 4.3
2018-Jun-15 01:31N 33°46' W 118°16'0 0.5
2018-Jun-15 00:58N 33°46' W 118°16'0 0.0
2018-Jun-15 00:30N 33°46' W 118°16'0 0.0
2018-Jun-15 00:00N 33°46' W 118°16'1 2.2
2018-Jun-14 23:30N 33°46' W 118°14'0 0.8
2018-Jun-14 23:00N 33°46' W 118°15'0 0.6
2018-Jun-14 22:30N 33°46' W 118°15'1 1.9
2018-Jun-14 22:01N 33°45' W 118°16'2 4.5
2018-Jun-14 21:30N 33°43' W 118°16'1 1.9
2018-Jun-14 21:01N 33°43' W 118°14'2 3.8
2018-Jun-14 20:30N 33°45' W 118°13'2 3.6
2018-Jun-14 20:00N 33°46' W 118°13'0 0.0
2018-Jun-14 19:30N 33°46' W 118°13'0 0.0
2018-Jun-14 19:00N 33°46' W 118°13'0 0.0
2018-Jun-14 18:30N 33°46' W 118°13'0 0.0
2018-Jun-14 17:58N 33°46' W 118°13'0 0.0
2018-Jun-14 17:27N 33°46' W 118°13'1 1.5
2018-Jun-14 17:00N 33°46' W 118°13'1 1.9
2018-Jun-14 16:30N 33°45' W 118°13'1 2.8
2018-Jun-14 16:00N 33°44' W 118°13'3 5.5
2018-Jun-14 15:30N 33°45' W 118°17'1 2.6
2018-Jun-14 14:59N 33°46' W 118°16'0 0.0
2018-Jun-14 14:30N 33°46' W 118°16'0 0.0
2018-Jun-14 14:00N 33°46' W 118°16'0 0.0
2018-Jun-14 13:30N 33°46' W 118°16'0 0.0
2018-Jun-14 13:00N 33°46' W 118°16'0 0.0
2018-Jun-14 12:30N 33°46' W 118°16'0 0.0
2018-Jun-14 11:58N 33°46' W 118°16'0 0.0
2018-Jun-14 11:29N 33°46' W 118°16'1 2.3
2018-Jun-14 11:00N 33°45' W 118°16'1 1.8
2018-Jun-14 10:29N 33°44' W 118°17'2 3.9
2018-Jun-14 10:00N 33°46' W 118°16'0 0.3
2018-Jun-14 09:30N 33°46' W 118°16'0 0.0
2018-Jun-14 09:00N 33°46' W 118°16'0 0.3
2018-Jun-14 08:30N 33°46' W 118°16'0 0.0
2018-Jun-14 08:00N 33°46' W 118°16'2 3.9
2018-Jun-14 07:30N 33°44' W 118°17'3 6.0
2018-Jun-14 06:58N 33°44' W 118°13'1 1.5
2018-Jun-14 06:30N 33°45' W 118°12'0 0.0
2018-Jun-14 06:00N 33°45' W 118°12'0 0.0
2018-Jun-14 05:30N 33°45' W 118°12'0 0.0
2018-Jun-14 05:00N 33°45' W 118°12'1 2.8
2018-Jun-14 04:30N 33°46' W 118°13'2 4.5
2018-Jun-14 04:00N 33°44' W 118°11'1 1.6
2018-Jun-14 03:30N 33°44' W 118°11'1 2.3
2018-Jun-14 03:00N 33°43' W 118°12'3 6.5
2018-Jun-14 02:30N 33°44' W 118°15'0 0.3
2018-Jun-14 02:00N 33°44' W 118°15'1 2.0
2018-Jun-14 01:29N 33°44' W 118°17'2 3.3
2018-Jun-14 00:58N 33°46' W 118°15'0 0.0
2018-Jun-14 00:30N 33°46' W 118°15'0 0.1
2018-Jun-14 00:00N 33°46' W 118°15'0 0.0
2018-Jun-13 23:30N 33°46' W 118°15'0 0.0
2018-Jun-13 23:00N 33°46' W 118°15'0 0.0
2018-Jun-13 22:30N 33°46' W 118°15'0 0.0
2018-Jun-13 22:00N 33°46' W 118°15'0 0.0
2018-Jun-13 21:30N 33°46' W 118°15'0 0.0
2018-Jun-13 21:00N 33°46' W 118°15'0 0.0
2018-Jun-13 20:30N 33°46' W 118°15'1 2.0
2018-Jun-13 20:00N 33°46' W 118°17'1 1.5
2018-Jun-13 19:30N 33°45' W 118°16'2 4.3
2018-Jun-13 18:59N 33°43' W 118°16'1 2.2
2018-Jun-13 18:30N 33°43' W 118°14'3 5.2
2018-Jun-13 17:59N 33°45' W 118°13'0 0.8
2018-Jun-13 17:30N 33°46' W 118°13'0 0.0
2018-Jun-13 17:00N 33°46' W 118°13'0 0.0
2018-Jun-13 16:29N 33°46' W 118°13'2 4.1
2018-Jun-13 15:59N 33°46' W 118°16'0 0.0
2018-Jun-13 15:30N 33°46' W 118°16'0 0.2
2018-Jun-13 15:00N 33°46' W 118°16'1 2.7
2018-Jun-13 14:30N 33°45' W 118°17'3 5.0
2018-Jun-13 14:00N 33°43' W 118°15'2 3.5
2018-Jun-13 13:30N 33°42' W 118°13'2 3.6
2018-Jun-13 13:00N 33°44' W 118°13'1 1.9
2018-Jun-13 12:30N 33°44' W 118°12'0 0.2
2018-Jun-13 12:00N 33°44' W 118°12'1 1.8
2018-Jun-13 11:30N 33°44' W 118°12'1 1.7
2018-Jun-13 11:00N 33°44' W 118°12'0 0.0
2018-Jun-13 10:30N 33°44' W 118°12'1 2.8
2018-Jun-13 09:59N 33°44' W 118°13'0 0.0
2018-Jun-13 09:27N 33°44' W 118°13'0 0.8
2018-Jun-13 09:00N 33°43' W 118°13'2 3.6
2018-Jun-13 08:30N 33°45' W 118°13'0 0.0
2018-Jun-13 07:58N 33°45' W 118°13'0 0.0
2018-Jun-13 07:29N 33°45' W 118°13'0 0.0
2018-Jun-13 07:00N 33°45' W 118°13'0 0.0
2018-Jun-13 06:26N 33°45' W 118°13'0 0.0
2018-Jun-13 05:59N 33°45' W 118°13'0 0.0
2018-Jun-13 05:29N 33°45' W 118°13'0 1.0
2018-Jun-13 05:00N 33°46' W 118°13'0 0.0
2018-Jun-13 04:30N 33°46' W 118°13'2 2.8
2018-Jun-13 03:58N 33°46' W 118°15'1 1.4
2018-Jun-13 03:30N 33°46' W 118°16'0 0.3
2018-Jun-13 03:00N 33°46' W 118°16'3 6.1
2018-Jun-13 02:29N 33°43' W 118°15'3 5.7
2018-Jun-13 02:00N 33°42' W 118°12'1 1.7
2018-Jun-13 01:30N 33°42' W 118°13'1 2.3
2018-Jun-13 01:00N 33°42' W 118°14'2 3.6
2018-Jun-13 00:30N 33°43' W 118°16'0 0.0
2018-Jun-13 00:00N 33°43' W 118°16'2 3.2
2018-Jun-12 23:30N 33°43' W 118°14'2 3.5
2018-Jun-12 22:57N 33°45' W 118°13'  
Track history (hours):
 
Tides and Currents Weather Stations Pressure Air Temp Water Temp Dewpoint Dewpoint Depression Visibility Wind Speed Wind Dir Waves Ship Positions

Alta June

Owner: Foss Maritime Company, Seattle, WA. More information available from US FCC via Universal Licensing System and Coast Guard Vessel Documentation Center.

Last reported at 2018-Jun-22 22:30 UTC. Time now 2018-Jun-22 22:55 UTC.
Position N 33°44' W 118°10'.

Length 23 m; draft 5 m.

Type: Towing. MMSI: 367369720.

Date/timePositionNaut miles runAvg speedWind from/ knotsBaromVisibWave heightAir tempDewpointWater temp
2018-Jun-22 22:30N 33°44' W 118°10'0 0.1
2018-Jun-22 22:00N 33°44' W 118°10'0 0.0
2018-Jun-22 21:30N 33°44' W 118°10'0 0.1
2018-Jun-22 21:00N 33°44' W 118°10'0 0.0
2018-Jun-22 20:30N 33°44' W 118°10'0 0.0
2018-Jun-22 20:00N 33°44' W 118°10'0 0.0
2018-Jun-22 19:30N 33°44' W 118°10'0 0.0
2018-Jun-22 19:00N 33°44' W 118°10'0 0.0
2018-Jun-22 18:30N 33°44' W 118°10'0 0.0
2018-Jun-22 18:00N 33°44' W 118°10'3 6.0
2018-Jun-22 17:31N 33°45' W 118°13'0 0.7
2018-Jun-22 17:00N 33°46' W 118°13'0 0.0
2018-Jun-22 16:28N 33°46' W 118°13'1 2.2
2018-Jun-22 16:01N 33°46' W 118°14'1 2.3
2018-Jun-22 15:31N 33°46' W 118°16'0 0.0
2018-Jun-22 15:01N 33°46' W 118°16'0 0.0
2018-Jun-22 14:30N 33°46' W 118°16'0 0.0
2018-Jun-22 14:00N 33°46' W 118°16'0 0.0
2018-Jun-22 13:31N 33°46' W 118°16'0 0.0
2018-Jun-22 13:00N 33°46' W 118°16'0 0.0
2018-Jun-22 12:30N 33°46' W 118°16'2 4.5
2018-Jun-22 12:00N 33°46' W 118°13'0 0.6
2018-Jun-22 11:31N 33°46' W 118°13'3 4.4
2018-Jun-22 10:53N 33°44' W 118°12'1 1.6
2018-Jun-22 10:30N 33°44' W 118°12'1 1.1
2018-Jun-22 10:00N 33°44' W 118°12'0 0.0
2018-Jun-22 09:30N 33°44' W 118°12'0 0.0
2018-Jun-22 09:01N 33°44' W 118°12'1 1.6
2018-Jun-22 08:29N 33°45' W 118°13'0 0.2
2018-Jun-22 08:01N 33°45' W 118°13'0 0.7
2018-Jun-22 07:30N 33°45' W 118°13'3 5.1
2018-Jun-22 07:00N 33°46' W 118°16'2 3.7
2018-Jun-22 06:30N 33°44' W 118°16'3 5.1
2018-Jun-22 05:59N 33°44' W 118°13'2 3.7
2018-Jun-22 05:31N 33°46' W 118°13'0 0.0
2018-Jun-22 05:00N 33°46' W 118°13'0 0.0
2018-Jun-22 04:30N 33°46' W 118°13'0 0.0
2018-Jun-22 04:00N 33°46' W 118°13'0 0.0
2018-Jun-22 03:31N 33°46' W 118°13'2 4.1
2018-Jun-22 03:00N 33°46' W 118°16'0 0.3
2018-Jun-22 02:31N 33°46' W 118°16'0 0.0
2018-Jun-22 02:00N 33°46' W 118°16'0 0.1
2018-Jun-22 01:30N 33°46' W 118°16'2 4.5
2018-Jun-22 01:00N 33°44' W 118°16'3 5.9
2018-Jun-22 00:30N 33°44' W 118°13'1 1.4
2018-Jun-22 00:00N 33°45' W 118°13'1 1.4
2018-Jun-21 23:30N 33°44' W 118°12'0 0.5
2018-Jun-21 22:59N 33°44' W 118°13'0 0.2
2018-Jun-21 22:31N 33°44' W 118°13'2 3.2
2018-Jun-21 22:01N 33°46' W 118°13'0 0.0
2018-Jun-21 21:30N 33°46' W 118°13'0 0.0
2018-Jun-21 21:00N 33°46' W 118°13'0 0.0
2018-Jun-21 20:30N 33°46' W 118°13'0 0.0
2018-Jun-21 20:00N 33°46' W 118°13'0 0.2
2018-Jun-21 19:30N 33°46' W 118°13'0 0.0
2018-Jun-21 18:58N 33°46' W 118°13'0 0.0
2018-Jun-21 18:30N 33°46' W 118°13'0 0.2
2018-Jun-21 17:59N 33°46' W 118°13'0 0.0
2018-Jun-21 17:30N 33°46' W 118°13'0 0.0
2018-Jun-21 17:00N 33°46' W 118°13'2 3.3
2018-Jun-21 16:30N 33°45' W 118°12'1 1.6
2018-Jun-21 15:59N 33°44' W 118°13'3 6.7
2018-Jun-21 15:31N 33°44' W 118°16'2 4.6
2018-Jun-21 15:00N 33°46' W 118°16'0 0.0
2018-Jun-21 14:30N 33°46' W 118°16'0 0.0
2018-Jun-21 14:01N 33°46' W 118°16'1 2.7
2018-Jun-21 13:31N 33°45' W 118°16'4 7.3
2018-Jun-21 13:00N 33°44' W 118°12'1 2.1
2018-Jun-21 12:30N 33°44' W 118°11'0 0.8
2018-Jun-21 12:00N 33°44' W 118°11'1 2.0
2018-Jun-21 11:30N 33°43' W 118°12'2 4.3
2018-Jun-21 11:00N 33°45' W 118°13'1 1.0
2018-Jun-21 10:30N 33°46' W 118°13'0 0.0
2018-Jun-21 10:00N 33°46' W 118°13'0 0.0
2018-Jun-21 09:27N 33°46' W 118°13'0 0.0
2018-Jun-21 09:00N 33°46' W 118°13'0 0.0
2018-Jun-21 08:29N 33°46' W 118°13'0 0.0
2018-Jun-21 08:00N 33°46' W 118°13'0 0.0
2018-Jun-21 07:29N 33°46' W 118°13'0 0.0
2018-Jun-21 07:00N 33°46' W 118°13'0 0.0
2018-Jun-21 06:25N 33°46' W 118°13'0 0.0
2018-Jun-21 05:58N 33°46' W 118°13'0 0.0
2018-Jun-21 05:28N 33°46' W 118°13'0 0.0
2018-Jun-21 04:58N 33°46' W 118°13'0 0.0
2018-Jun-21 04:30N 33°46' W 118°13'0 0.0
2018-Jun-21 04:00N 33°46' W 118°13'1 1.4
2018-Jun-21 03:30N 33°46' W 118°14'2 3.3
2018-Jun-21 03:00N 33°46' W 118°16'1 2.0
2018-Jun-21 02:30N 33°45' W 118°16'1 2.8
2018-Jun-21 02:00N 33°44' W 118°15'0 0.0
2018-Jun-21 01:30N 33°44' W 118°15'0 0.0
2018-Jun-21 01:00N 33°44' W 118°15'0 0.0
2018-Jun-21 00:30N 33°44' W 118°15'0 0.0
2018-Jun-21 00:00N 33°44' W 118°15'0 0.0
2018-Jun-20 23:30N 33°44' W 118°15'1 2.3
2018-Jun-20 23:00N 33°44' W 118°17'2 4.6
2018-Jun-20 22:30N 33°46' W 118°15'1 1.6
2018-Jun-20 22:00N 33°45' W 118°16'2 4.5
2018-Jun-20 21:28N 33°43' W 118°16'0 0.8
2018-Jun-20 21:00N 33°43' W 118°16'0 0.5
2018-Jun-20 20:30N 33°43' W 118°16'0 0.0
2018-Jun-20 20:00N 33°43' W 118°16'2 3.6
2018-Jun-20 19:30N 33°44' W 118°13'0 0.3
2018-Jun-20 19:00N 33°44' W 118°13'3 5.0
2018-Jun-20 18:29N 33°44' W 118°16'2 4.3
2018-Jun-20 18:00N 33°46' W 118°16'1 2.7
2018-Jun-20 17:30N 33°46' W 118°14'1 1.6
2018-Jun-20 17:00N 33°46' W 118°13'2 4.2
2018-Jun-20 16:30N 33°44' W 118°13'1 2.8
2018-Jun-20 16:00N 33°44' W 118°15'1 2.5
2018-Jun-20 15:30N 33°44' W 118°17'2 4.1
2018-Jun-20 15:00N 33°46' W 118°15'3 5.4
2018-Jun-20 14:30N 33°45' W 118°12'0 0.1
2018-Jun-20 14:01N 33°45' W 118°12'1 2.8
2018-Jun-20 13:30N 33°43' W 118°11'1 2.2
2018-Jun-20 13:00N 33°44' W 118°12'1 1.2
2018-Jun-20 12:30N 33°44' W 118°13'2 3.3
2018-Jun-20 12:00N 33°45' W 118°14'1 2.1
2018-Jun-20 11:26N 33°45' W 118°13'1 3.4
2018-Jun-20 11:00N 33°44' W 118°12'1 1.8
2018-Jun-20 10:30N 33°44' W 118°12'0 0.0
2018-Jun-20 10:00N 33°44' W 118°12'0 0.9
2018-Jun-20 09:30N 33°44' W 118°12'0 0.5
2018-Jun-20 09:00N 33°45' W 118°12'1 1.3
2018-Jun-20 08:30N 33°45' W 118°13'1 1.4
2018-Jun-20 08:00N 33°46' W 118°13'0 0.0
2018-Jun-20 07:30N 33°46' W 118°13'0 0.0
2018-Jun-20 07:00N 33°46' W 118°13'0 0.0
2018-Jun-20 06:30N 33°46' W 118°13'0 0.0
2018-Jun-20 06:00N 33°46' W 118°13'0 0.0
2018-Jun-20 05:30N 33°46' W 118°13'0 0.0
2018-Jun-20 05:00N 33°46' W 118°13'0 0.0
2018-Jun-20 04:30N 33°46' W 118°13'0 0.0
2018-Jun-20 04:00N 33°46' W 118°13'0 0.0
2018-Jun-20 03:30N 33°46' W 118°13'0 0.0
2018-Jun-20 03:00N 33°46' W 118°13'0 0.0
2018-Jun-20 02:30N 33°46' W 118°13'1 1.6
2018-Jun-20 02:00N 33°45' W 118°14'0 0.3
2018-Jun-20 01:30N 33°45' W 118°14'1 1.4
2018-Jun-20 01:00N 33°46' W 118°13'0 0.0
2018-Jun-20 00:30N 33°46' W 118°13'0 0.0
2018-Jun-20 00:00N 33°46' W 118°13'0 0.0
2018-Jun-19 23:22N 33°46' W 118°13'2 4.4
2018-Jun-19 23:00N 33°46' W 118°15'1 2.3
2018-Jun-19 22:30N 33°45' W 118°16'0 0.5
2018-Jun-19 22:00N 33°45' W 118°16'1 2.7
2018-Jun-19 21:29N 33°44' W 118°16'0 0.0
2018-Jun-19 20:59N 33°44' W 118°16'0 0.0
2018-Jun-19 20:28N 33°44' W 118°16'3 5.4
2018-Jun-19 20:00N 33°44' W 118°13'1 1.7
2018-Jun-19 19:30N 33°45' W 118°13'0 0.7
2018-Jun-19 18:58N 33°45' W 118°13'0 0.9
2018-Jun-19 18:30N 33°45' W 118°12'1 2.8
2018-Jun-19 18:00N 33°43' W 118°11'2 4.7
2018-Jun-19 17:31N 33°45' W 118°13'0 0.5
2018-Jun-19 17:00N 33°46' W 118°13'0 0.0
2018-Jun-19 16:30N 33°46' W 118°13'1 2.4
2018-Jun-19 16:00N 33°46' W 118°15'2 3.3
2018-Jun-19 15:30N 33°46' W 118°17'1 1.3
2018-Jun-19 15:00N 33°46' W 118°16'2 4.0
2018-Jun-19 14:30N 33°46' W 118°13'0 0.8
2018-Jun-19 14:00N 33°46' W 118°13'0 0.0
2018-Jun-19 13:30N 33°46' W 118°13'0 0.0
2018-Jun-19 13:00N 33°46' W 118°13'0 0.0
2018-Jun-19 12:29N 33°46' W 118°13'0 0.0
2018-Jun-19 12:00N 33°46' W 118°13'0 0.0
2018-Jun-19 11:17N 33°46' W 118°13'0 0.0
2018-Jun-19 10:59N 33°46' W 118°13'0 0.0
2018-Jun-19 10:28N 33°46' W 118°13'0 0.0
2018-Jun-19 09:54N 33°46' W 118°13'0 0.0
2018-Jun-19 09:30N 33°46' W 118°13'0 0.0
2018-Jun-19 08:59N 33°46' W 118°13'0 0.8
2018-Jun-19 08:30N 33°45' W 118°13'1 2.2
2018-Jun-19 08:00N 33°44' W 118°13'2 4.9
2018-Jun-19 07:30N 33°42' W 118°11'0 1.0
2018-Jun-19 07:00N 33°42' W 118°11'3 6.4
2018-Jun-19 06:30N 33°45' W 118°13'1 1.7
2018-Jun-19 06:00N 33°45' W 118°13'0 0.7
2018-Jun-19 05:30N 33°46' W 118°13'0 0.0
2018-Jun-19 05:00N 33°46' W 118°13'0 0.0
2018-Jun-19 04:30N 33°46' W 118°13'0 0.0
2018-Jun-19 04:00N 33°46' W 118°13'0 0.0
2018-Jun-19 03:30N 33°46' W 118°13'0 0.0
2018-Jun-19 02:59N 33°46' W 118°13'0 0.0
2018-Jun-19 02:30N 33°46' W 118°13'0 0.0
2018-Jun-19 02:00N 33°46' W 118°13'2 4.0
2018-Jun-19 01:31N 33°46' W 118°16'1 2.8
2018-Jun-19 01:00N 33°44' W 118°17'3 5.5
2018-Jun-19 00:30N 33°43' W 118°13'3 5.4
2018-Jun-19 00:00N 33°46' W 118°13'1 2.2
2018-Jun-18 23:30N 33°45' W 118°13'1 1.2
2018-Jun-18 23:00N 33°45' W 118°12'1 2.2
2018-Jun-18 22:28N 33°44' W 118°14'1 2.8
2018-Jun-18 22:00N 33°44' W 118°12'0 0.7
2018-Jun-18 21:30N 33°44' W 118°12'1 2.0
2018-Jun-18 20:58N 33°44' W 118°12'2 4.1
2018-Jun-18 20:28N 33°45' W 118°13'0 0.0
2018-Jun-18 20:00N 33°45' W 118°13'0 0.5
2018-Jun-18 19:30N 33°45' W 118°13'1 2.9
2018-Jun-18 18:58N 33°46' W 118°13'0 0.3
2018-Jun-18 18:30N 33°46' W 118°13'0 0.4
2018-Jun-18 17:59N 33°46' W 118°13'2 4.2
2018-Jun-18 17:30N 33°44' W 118°13'3 5.7
2018-Jun-18 17:00N 33°44' W 118°17'2 3.7
2018-Jun-18 16:31N 33°46' W 118°16'2 4.3
2018-Jun-18 16:00N 33°46' W 118°13'0 1.0
2018-Jun-18 15:30N 33°45' W 118°13'0 0.1
2018-Jun-18 14:58N 33°45' W 118°13'0 0.0
2018-Jun-18 14:30N 33°45' W 118°13'0 0.0
2018-Jun-18 13:59N 33°45' W 118°13'0 0.0
2018-Jun-18 13:30N 33°45' W 118°13'0 0.0
2018-Jun-18 13:00N 33°45' W 118°13'0 0.0
2018-Jun-18 12:21N 33°45' W 118°13'0 0.0
2018-Jun-18 11:56N 33°45' W 118°13'0 0.0
2018-Jun-18 11:21N 33°45' W 118°13'0 0.0
2018-Jun-18 11:00N 33°45' W 118°13'0 0.0
2018-Jun-18 10:24N 33°45' W 118°13'0 0.0
2018-Jun-18 10:00N 33°45' W 118°13'0 0.4
2018-Jun-18 09:30N 33°45' W 118°13'0 0.0
2018-Jun-18 09:00N 33°45' W 118°13'1 3.0
2018-Jun-18 08:30N 33°44' W 118°12'3 5.5
2018-Jun-18 08:00N 33°42' W 118°11'1 1.0
2018-Jun-18 07:30N 33°42' W 118°11'2 2.9
2018-Jun-18 06:59N 33°44' W 118°12'0 0.5
2018-Jun-18 06:30N 33°44' W 118°12'2 4.6
2018-Jun-18 06:00N 33°46' W 118°13'0 0.0
2018-Jun-18 05:30N 33°46' W 118°13'0 0.0
2018-Jun-18 05:00N 33°46' W 118°13'0 0.0
2018-Jun-18 04:30N 33°46' W 118°13'0 0.0
2018-Jun-18 04:00N 33°46' W 118°13'0 0.0
2018-Jun-18 03:29N 33°46' W 118°13'0 0.0
2018-Jun-18 02:59N 33°46' W 118°13'0 0.0
2018-Jun-18 02:30N 33°46' W 118°13'1 1.8
2018-Jun-18 02:00N 33°46' W 118°14'2 3.4
2018-Jun-18 01:30N 33°46' W 118°16'0 0.0
2018-Jun-18 01:00N 33°46' W 118°16'1 2.1
2018-Jun-18 00:30N 33°45' W 118°17'2 4.9
2018-Jun-18 00:00N 33°43' W 118°15'2 3.3
2018-Jun-17 23:30N 33°42' W 118°13'3 5.1
2018-Jun-17 22:59N 33°43' W 118°16'2 4.5
2018-Jun-17 22:30N 33°45' W 118°16'0 0.0
2018-Jun-17 22:00N 33°45' W 118°16'0 0.0
2018-Jun-17 21:30N 33°45' W 118°16'0 0.0
2018-Jun-17 21:00N 33°45' W 118°16'1 1.6
2018-Jun-17 20:30N 33°46' W 118°16'0 0.3
2018-Jun-17 20:00N 33°46' W 118°16'3 5.5
2018-Jun-17 19:28N 33°43' W 118°16'1 0.2
2018-Jun-17 12:14N 33°42' W 118°17'2 9.6
2018-Jun-17 12:00N 33°43' W 118°14'3 6.3
2018-Jun-17 11:30N 33°46' W 118°14'0 0.0
2018-Jun-17 11:00N 33°46' W 118°14'0 0.0
2018-Jun-17 10:30N 33°46' W 118°14'0 0.0
2018-Jun-17 10:00N 33°46' W 118°14'2 3.9
2018-Jun-17 09:30N 33°44' W 118°13'3 4.2
2018-Jun-17 08:50N 33°44' W 118°17'2 5.8
2018-Jun-17 08:30N 33°46' W 118°16'0 0.2
2018-Jun-17 08:00N 33°46' W 118°16'0 0.0
2018-Jun-17 07:30N 33°46' W 118°16'0 0.0
2018-Jun-17 07:00N 33°46' W 118°16'0 0.0
2018-Jun-17 06:30N 33°46' W 118°16'0 0.0
2018-Jun-17 06:00N 33°46' W 118°16'0 0.0
2018-Jun-17 05:30N 33°46' W 118°16'0 0.0
2018-Jun-17 05:00N 33°46' W 118°16'2 4.1
2018-Jun-17 04:30N 33°46' W 118°13'0 0.0
2018-Jun-17 04:00N 33°46' W 118°13'0 0.0
2018-Jun-17 03:29N 33°46' W 118°13'0 0.0
2018-Jun-17 03:00N 33°46' W 118°13'2 3.4
2018-Jun-17 02:30N 33°44' W 118°13'1 1.7
2018-Jun-17 02:00N 33°45' W 118°12'1 1.5
2018-Jun-17 01:30N 33°45' W 118°13'1 2.9
2018-Jun-17 01:00N 33°46' W 118°14'0 0.1
2018-Jun-17 00:30N 33°46' W 118°14'1 1.3
2018-Jun-17 00:00N 33°46' W 118°13'2 4.8
2018-Jun-16 23:30N 33°45' W 118°16'1 1.5
2018-Jun-16 23:00N 33°45' W 118°17'2 3.0
2018-Jun-16 22:30N 33°46' W 118°15'0 0.1
2018-Jun-16 21:58N 33°46' W 118°15'2 3.8
2018-Jun-16 21:29N 33°46' W 118°13'0 0.0
2018-Jun-16 21:00N 33°46' W 118°13'0 0.0
2018-Jun-16 20:27N 33°46' W 118°13'0 0.0
2018-Jun-16 20:00N 33°46' W 118°13'0 0.0
2018-Jun-16 19:30N 33°46' W 118°13'0 0.0
2018-Jun-16 19:00N 33°46' W 118°13'0 0.0
2018-Jun-16 18:30N 33°46' W 118°13'0 0.0
2018-Jun-16 17:56N 33°46' W 118°13'0 0.0
2018-Jun-16 17:30N 33°46' W 118°13'0 0.0
2018-Jun-16 17:00N 33°46' W 118°13'0 0.0
2018-Jun-16 16:30N 33°46' W 118°13'0 0.0
2018-Jun-16 16:00N 33°46' W 118°13'1 2.5
2018-Jun-16 15:30N 33°46' W 118°15'1 1.9
2018-Jun-16 15:00N 33°46' W 118°16'0 0.0
2018-Jun-16 14:30N 33°46' W 118°16'0 0.0
2018-Jun-16 14:00N 33°46' W 118°16'0 0.3
2018-Jun-16 13:30N 33°46' W 118°16'2 4.8
2018-Jun-16 13:00N 33°43' W 118°16'2 4.1
2018-Jun-16 12:31N 33°45' W 118°17'0 0.3
2018-Jun-16 12:00N 33°46' W 118°17'0 0.0
2018-Jun-16 11:30N 33°46' W 118°17'2 4.4
2018-Jun-16 10:59N 33°43' W 118°16'2 3.1
2018-Jun-16 10:30N 33°45' W 118°16'0 0.7
2018-Jun-16 10:00N 33°45' W 118°16'0 0.0
2018-Jun-16 09:30N 33°45' W 118°16'0 0.0
2018-Jun-16 09:00N 33°45' W 118°16'0 0.0
2018-Jun-16 08:30N 33°45' W 118°16'0 0.0
2018-Jun-16 07:58N 33°45' W 118°16'0 0.0
2018-Jun-16 07:29N 33°45' W 118°16'0 0.0
2018-Jun-16 06:59N 33°45' W 118°16'0 0.0
2018-Jun-16 06:30N 33°45' W 118°16'0 0.0
2018-Jun-16 05:59N 33°45' W 118°16'0 0.0
2018-Jun-16 05:28N 33°45' W 118°16'1 3.0
2018-Jun-16 05:00N 33°46' W 118°15'1 2.6
2018-Jun-16 04:30N 33°46' W 118°13'1 1.2
2018-Jun-16 04:00N 33°46' W 118°14'1 2.6
2018-Jun-16 03:30N 33°45' W 118°13'2 4.1
2018-Jun-16 03:00N 33°43' W 118°11'3 5.0
2018-Jun-16 02:30N 33°46' W 118°13'1 1.5
2018-Jun-16 01:59N 33°46' W 118°13'0 0.0
2018-Jun-16 01:30N 33°46' W 118°13'0 0.0
2018-Jun-16 00:59N 33°46' W 118°13'0 0.0
2018-Jun-16 00:30N 33°46' W 118°13'0 0.0
2018-Jun-16 00:00N 33°46' W 118°13'0 0.0
2018-Jun-15 23:30N 33°46' W 118°13'0 0.0
2018-Jun-15 23:00N 33°46' W 118°13'0 0.0
2018-Jun-15 22:29N 33°46' W 118°13'0 0.0
2018-Jun-15 21:59N 33°46' W 118°13'0 0.0
2018-Jun-15 21:30N 33°46' W 118°13'0 0.0
2018-Jun-15 21:00N 33°46' W 118°13'2 4.9
2018-Jun-15 20:30N 33°46' W 118°16'0 0.2
2018-Jun-15 20:00N 33°46' W 118°16'0 0.1
2018-Jun-15 19:28N 33°46' W 118°16'0 0.0
2018-Jun-15 18:59N 33°46' W 118°16'0 0.0
2018-Jun-15 18:30N 33°46' W 118°16'0 1.0
2018-Jun-15 18:00N 33°46' W 118°15'1 2.7
2018-Jun-15 17:30N 33°46' W 118°14'1 1.1
2018-Jun-15 17:00N 33°46' W 118°13'0 0.0
2018-Jun-15 16:30N 33°46' W 118°13'0 0.0
2018-Jun-15 15:57N 33°46' W 118°13'0 0.0
2018-Jun-15 15:30N 33°46' W 118°13'3 4.7
2018-Jun-15 14:58N 33°43' W 118°14'1 2.5
2018-Jun-15 14:31N 33°44' W 118°15'0 0.2
2018-Jun-15 14:00N 33°44' W 118°15'0 0.0
2018-Jun-15 13:30N 33°44' W 118°15'0 0.1
2018-Jun-15 13:00N 33°44' W 118°15'0 0.0
2018-Jun-15 12:30N 33°44' W 118°15'0 0.1
2018-Jun-15 11:56N 33°44' W 118°15'0 0.4
2018-Jun-15 11:30N 33°44' W 118°15'0 0.0
2018-Jun-15 10:59N 33°44' W 118°15'0 0.0
2018-Jun-15 10:30N 33°44' W 118°15'0 0.0
2018-Jun-15 09:54N 33°44' W 118°15'0 0.0
2018-Jun-15 09:30N 33°44' W 118°15'0 0.0
2018-Jun-15 08:55N 33°44' W 118°15'0 0.0
2018-Jun-15 08:26N 33°44' W 118°15'0 0.0
2018-Jun-15 07:57N 33°44' W 118°15'0 0.0
2018-Jun-15 07:26N 33°44' W 118°15'0 0.0
2018-Jun-15 06:59N 33°44' W 118°15'0 0.0
2018-Jun-15 06:28N 33°44' W 118°15'0 0.0
2018-Jun-15 05:57N 33°44' W 118°15'0 0.0
2018-Jun-15 05:30N 33°44' W 118°15'1 1.0
2018-Jun-15 04:59N 33°44' W 118°15'2 4.9
2018-Jun-15 04:30N 33°45' W 118°13'1 1.1
2018-Jun-15 04:00N 33°46' W 118°13'0 0.0
2018-Jun-15 03:30N 33°46' W 118°13'1 2.9
2018-Jun-15 03:00N 33°44' W 118°13'1 2.8
2018-Jun-15 02:30N 33°44' W 118°15'1 1.8
2018-Jun-15 02:00N 33°43' W 118°16'2 4.3
2018-Jun-15 01:31N 33°46' W 118°16'0 0.5
2018-Jun-15 00:58N 33°46' W 118°16'0 0.0
2018-Jun-15 00:30N 33°46' W 118°16'0 0.0
2018-Jun-15 00:00N 33°46' W 118°16'1 2.2
2018-Jun-14 23:30N 33°46' W 118°14'0 0.8
2018-Jun-14 23:00N 33°46' W 118°15'0 0.6
2018-Jun-14 22:30N 33°46' W 118°15'1 1.9
2018-Jun-14 22:01N 33°45' W 118°16'2 4.5
2018-Jun-14 21:30N 33°43' W 118°16'1 1.9
2018-Jun-14 21:01N 33°43' W 118°14'2 3.8
2018-Jun-14 20:30N 33°45' W 118°13'2 3.6
2018-Jun-14 20:00N 33°46' W 118°13'0 0.0
2018-Jun-14 19:30N 33°46' W 118°13'0 0.0
2018-Jun-14 19:00N 33°46' W 118°13'0 0.0
2018-Jun-14 18:30N 33°46' W 118°13'0 0.0
2018-Jun-14 17:58N 33°46' W 118°13'0 0.0
2018-Jun-14 17:27N 33°46' W 118°13'1 1.5
2018-Jun-14 17:00N 33°46' W 118°13'1 1.9
2018-Jun-14 16:30N 33°45' W 118°13'1 2.8
2018-Jun-14 16:00N 33°44' W 118°13'3 5.5
2018-Jun-14 15:30N 33°45' W 118°17'1 2.6
2018-Jun-14 14:59N 33°46' W 118°16'0 0.0
2018-Jun-14 14:30N 33°46' W 118°16'0 0.0
2018-Jun-14 14:00N 33°46' W 118°16'0 0.0
2018-Jun-14 13:30N 33°46' W 118°16'0 0.0
2018-Jun-14 13:00N 33°46' W 118°16'0 0.0
2018-Jun-14 12:30N 33°46' W 118°16'0 0.0
2018-Jun-14 11:58N 33°46' W 118°16'0 0.0
2018-Jun-14 11:29N 33°46' W 118°16'1 2.3
2018-Jun-14 11:00N 33°45' W 118°16'1 1.8
2018-Jun-14 10:29N 33°44' W 118°17'2 3.9
2018-Jun-14 10:00N 33°46' W 118°16'0 0.3
2018-Jun-14 09:30N 33°46' W 118°16'0 0.0
2018-Jun-14 09:00N 33°46' W 118°16'0 0.3
2018-Jun-14 08:30N 33°46' W 118°16'0 0.0
2018-Jun-14 08:00N 33°46' W 118°16'2 3.9
2018-Jun-14 07:30N 33°44' W 118°17'3 6.0
2018-Jun-14 06:58N 33°44' W 118°13'1 1.5
2018-Jun-14 06:30N 33°45' W 118°12'0 0.0
2018-Jun-14 06:00N 33°45' W 118°12'0 0.0
2018-Jun-14 05:30N 33°45' W 118°12'0 0.0
2018-Jun-14 05:00N 33°45' W 118°12'1 2.8
2018-Jun-14 04:30N 33°46' W 118°13'2 4.5
2018-Jun-14 04:00N 33°44' W 118°11'1 1.6
2018-Jun-14 03:30N 33°44' W 118°11'1 2.3
2018-Jun-14 03:00N 33°43' W 118°12'3 6.5
2018-Jun-14 02:30N 33°44' W 118°15'0 0.3
2018-Jun-14 02:00N 33°44' W 118°15'1 2.0
2018-Jun-14 01:29N 33°44' W 118°17'2 3.3
2018-Jun-14 00:58N 33°46' W 118°15'0 0.0
2018-Jun-14 00:30N 33°46' W 118°15'0 0.1
2018-Jun-14 00:00N 33°46' W 118°15'0 0.0
2018-Jun-13 23:30N 33°46' W 118°15'0 0.0
2018-Jun-13 23:00N 33°46' W 118°15'0 0.0
2018-Jun-13 22:30N 33°46' W 118°15'0 0.0
2018-Jun-13 22:00N 33°46' W 118°15'0 0.0
2018-Jun-13 21:30N 33°46' W 118°15'0 0.0
2018-Jun-13 21:00N 33°46' W 118°15'0 0.0
2018-Jun-13 20:30N 33°46' W 118°15'1 2.0
2018-Jun-13 20:00N 33°46' W 118°17'1 1.5
2018-Jun-13 19:30N 33°45' W 118°16'2 4.3
2018-Jun-13 18:59N 33°43' W 118°16'1 2.2
2018-Jun-13 18:30N 33°43' W 118°14'3 5.2
2018-Jun-13 17:59N 33°45' W 118°13'0 0.8
2018-Jun-13 17:30N 33°46' W 118°13'0 0.0
2018-Jun-13 17:00N 33°46' W 118°13'0 0.0
2018-Jun-13 16:29N 33°46' W 118°13'2 4.1
2018-Jun-13 15:59N 33°46' W 118°16'0 0.0
2018-Jun-13 15:30N 33°46' W 118°16'0 0.2
2018-Jun-13 15:00N 33°46' W 118°16'1 2.7
2018-Jun-13 14:30N 33°45' W 118°17'3 5.0
2018-Jun-13 14:00N 33°43' W 118°15'2 3.5
2018-Jun-13 13:30N 33°42' W 118°13'2 3.6
2018-Jun-13 13:00N 33°44' W 118°13'1 1.9
2018-Jun-13 12:30N 33°44' W 118°12'0 0.2
2018-Jun-13 12:00N 33°44' W 118°12'1 1.8
2018-Jun-13 11:30N 33°44' W 118°12'1 1.7
2018-Jun-13 11:00N 33°44' W 118°12'0 0.0
2018-Jun-13 10:30N 33°44' W 118°12'1 2.8
2018-Jun-13 09:59N 33°44' W 118°13'0 0.0
2018-Jun-13 09:27N 33°44' W 118°13'0 0.8
2018-Jun-13 09:00N 33°43' W 118°13'2 3.6
2018-Jun-13 08:30N 33°45' W 118°13'0 0.0
2018-Jun-13 07:58N 33°45' W 118°13'0 0.0
2018-Jun-13 07:29N 33°45' W 118°13'0 0.0
2018-Jun-13 07:00N 33°45' W 118°13'0 0.0
2018-Jun-13 06:26N 33°45' W 118°13'0 0.0
2018-Jun-13 05:59N 33°45' W 118°13'0 0.0
2018-Jun-13 05:29N 33°45' W 118°13'0 1.0
2018-Jun-13 05:00N 33°46' W 118°13'0 0.0
2018-Jun-13 04:30N 33°46' W 118°13'2 2.8
2018-Jun-13 03:58N 33°46' W 118°15'1 1.4
2018-Jun-13 03:30N 33°46' W 118°16'0 0.3
2018-Jun-13 03:00N 33°46' W 118°16'3 6.1
2018-Jun-13 02:29N 33°43' W 118°15'3 5.7
2018-Jun-13 02:00N 33°42' W 118°12'1 1.7
2018-Jun-13 01:30N 33°42' W 118°13'1 2.3
2018-Jun-13 01:00N 33°42' W 118°14'2 3.6
2018-Jun-13 00:30N 33°43' W 118°16'0 0.0
2018-Jun-13 00:00N 33°43' W 118°16'2 3.2
2018-Jun-12 23:30N 33°43' W 118°14'2 3.5
2018-Jun-12 22:57N 33°45' W 118°13'  

Dump ship's entire track history